createdAt,value
2019-04-03T00:00:32.818Z,11.83
2019-04-03T00:03:05.528Z,11.30
2019-04-03T00:05:37.073Z,12.13
2019-04-03T00:08:08.546Z,11.97
2019-04-03T00:10:39.992Z,11.43
2019-04-03T00:13:11.749Z,14.67
2019-04-03T00:15:44.624Z,11.10
2019-04-03T00:18:16.924Z,12.73
2019-04-03T00:20:49.206Z,11.63
2019-04-03T00:23:22.350Z,11.93
2019-04-03T00:25:54.540Z,10.50
2019-04-03T00:28:28.252Z,11.73
2019-04-03T00:31:00.300Z,10.30
2019-04-03T00:33:31.821Z,9.27
2019-04-03T00:36:03.435Z,10.90
2019-04-03T00:38:35.393Z,10.53
2019-04-03T00:41:07.047Z,9.33
2019-04-03T00:43:38.710Z,10.50
2019-04-03T00:46:10.366Z,11.10
2019-04-03T00:48:41.910Z,9.80
2019-04-03T00:51:13.578Z,10.87
2019-04-03T00:53:45.338Z,8.93
2019-04-03T00:56:16.796Z,8.50
2019-04-03T00:58:48.246Z,10.10
2019-04-03T01:01:20.768Z,11.37
2019-04-03T01:03:52.470Z,14.40
2019-04-03T01:06:24.139Z,11.73
2019-04-03T01:08:55.677Z,9.03
2019-04-03T01:11:27.249Z,9.83
2019-04-03T01:14:01.098Z,9.63
2019-04-03T01:16:33.007Z,9.50
2019-04-03T01:19:05.800Z,11.10
2019-04-03T01:21:37.839Z,8.40
2019-04-03T01:24:09.634Z,9.07
2019-04-03T01:26:41.286Z,11.00
2019-04-03T01:29:12.964Z,10.70
2019-04-03T01:31:45.208Z,10.93
2019-04-03T01:34:17.847Z,8.70
2019-04-03T01:36:50.367Z,9.45
2019-04-03T01:39:22.043Z,10.87
2019-04-03T01:41:53.702Z,8.07
2019-04-03T01:44:25.374Z,10.87
2019-04-03T01:46:57.700Z,9.60
2019-04-03T01:49:29.661Z,11.17
2019-04-03T01:52:01.499Z,10.30
2019-04-03T01:54:33.794Z,11.57
2019-04-03T01:57:06.438Z,8.73
2019-04-03T01:59:38.490Z,8.17
2019-04-03T02:02:10.138Z,10.77
2019-04-03T02:04:42.702Z,9.73
2019-04-03T02:07:15.128Z,8.70
2019-04-03T02:09:47.223Z,10.57
2019-04-03T02:12:19.740Z,10.23
2019-04-03T02:14:51.907Z,9.57
2019-04-03T02:17:24.175Z,11.30
2019-04-03T02:19:56.332Z,12.07
2019-04-03T02:22:29.592Z,10.00
2019-04-03T02:25:02.188Z,9.77
2019-04-03T02:27:34.388Z,10.90
2019-04-03T02:30:07.287Z,9.97
2019-04-03T02:32:38.742Z,9.60
2019-04-03T02:35:10.504Z,9.87
2019-04-03T02:37:41.961Z,11.37
2019-04-03T02:40:14.215Z,9.67
2019-04-03T02:42:45.625Z,10.30
2019-04-03T02:45:17.652Z,11.53
2019-04-03T02:47:49.189Z,11.10
2019-04-03T02:50:25.550Z,12.13
2019-04-03T02:52:58.936Z,11.03
2019-04-03T02:55:30.310Z,11.37
2019-04-03T02:58:02.276Z,10.13
2019-04-03T03:00:34.124Z,11.17
2019-04-03T03:03:05.796Z,12.87
2019-04-03T03:05:37.703Z,15.20
2019-04-03T03:08:09.975Z,12.07
2019-04-03T03:10:41.686Z,12.40
2019-04-03T03:13:13.741Z,10.73
2019-04-03T03:15:45.592Z,10.10
2019-04-03T03:18:16.962Z,15.87
2019-04-03T03:20:48.917Z,13.40
2019-04-03T03:23:23.376Z,11.23
2019-04-03T03:25:53.564Z,13.80
2019-04-03T03:28:25.219Z,15.33
2019-04-03T03:31:03.691Z,17.10
2019-04-03T03:33:36.198Z,13.83
2019-04-03T03:36:05.414Z,16.13
2019-04-03T03:38:39.421Z,17.20
2019-04-03T03:41:10.488Z,21.63
2019-04-03T03:43:42.148Z,20.57
2019-04-03T03:46:13.905Z,15.53
2019-04-03T03:48:45.813Z,18.77
2019-04-03T03:51:17.916Z,19.80
2019-04-03T03:53:49.804Z,22.30
2019-04-03T03:56:21.539Z,19.33
2019-04-03T03:58:54.342Z,19.20
2019-04-03T04:01:30.189Z,18.47
2019-04-03T04:03:59.474Z,17.23
2019-04-03T04:06:35.049Z,15.60
2019-04-03T04:09:06.020Z,9.73
2019-04-03T04:11:37.787Z,14.17
2019-04-03T04:14:09.396Z,14.47
2019-04-03T04:16:41.261Z,14.97
2019-04-03T04:19:12.724Z,10.23
2019-04-03T04:21:45.216Z,12.07
2019-04-03T04:24:17.735Z,11.60
2019-04-03T04:26:50.639Z,13.30
2019-04-03T04:29:22.106Z,13.97
2019-04-03T04:31:53.982Z,13.13
2019-04-03T04:34:25.721Z,14.93
2019-04-03T04:36:57.769Z,11.43
2019-04-03T04:39:29.846Z,10.00
2019-04-03T04:42:03.371Z,11.93
2019-04-03T04:44:35.540Z,11.75
2019-04-03T04:47:07.275Z,9.50
2019-04-03T04:49:38.889Z,12.53
2019-04-03T04:52:10.717Z,14.53
2019-04-03T04:54:43.033Z,12.37
2019-04-03T04:57:14.641Z,12.20
2019-04-03T04:59:46.530Z,11.03
2019-04-03T05:02:19.869Z,11.37
2019-04-03T05:04:51.875Z,10.90
2019-04-03T05:07:23.738Z,12.77
2019-04-03T05:09:55.390Z,7.73
2019-04-03T05:12:26.825Z,9.50
2019-04-03T05:14:58.772Z,11.97
2019-04-03T05:17:30.462Z,12.03
2019-04-03T05:20:02.429Z,9.13
2019-04-03T05:22:34.249Z,10.40
2019-04-03T05:25:05.823Z,11.50
2019-04-03T05:27:37.597Z,12.03
2019-04-03T05:30:10.034Z,10.40
2019-04-03T05:32:42.531Z,9.08
2019-04-03T05:35:14.940Z,7.62
2019-04-03T05:37:47.201Z,9.68
2019-04-03T05:40:19.041Z,11.28
2019-04-03T05:42:50.915Z,12.63
2019-04-03T05:45:22.297Z,11.30
2019-04-03T05:47:54.294Z,9.83
2019-04-03T05:50:26.351Z,14.03
2019-04-03T05:52:58.573Z,8.18
2019-04-03T05:55:29.879Z,9.93
2019-04-03T05:58:01.274Z,8.98
2019-04-03T06:00:38.046Z,8.20
2019-04-03T06:03:09.402Z,11.18
2019-04-03T06:05:41.843Z,11.35
2019-04-03T06:08:14.563Z,10.55
2019-04-03T06:10:46.258Z,9.20
2019-04-03T06:13:17.868Z,9.58
2019-04-03T06:15:49.351Z,11.38
2019-04-03T06:18:22.572Z,14.00
2019-04-03T06:20:55.507Z,8.55
2019-04-03T06:23:27.050Z,9.25
2019-04-03T06:26:00.798Z,9.40
2019-04-03T06:28:31.711Z,8.15
2019-04-03T06:31:03.681Z,9.38
2019-04-03T06:33:36.593Z,6.45
2019-04-03T06:36:08.220Z,8.28
2019-04-03T06:38:39.862Z,9.13
2019-04-03T06:41:11.122Z,11.70
2019-04-03T06:43:42.985Z,10.88
2019-04-03T06:46:14.769Z,5.40
2019-04-03T06:48:46.206Z,9.58
2019-04-03T06:51:17.960Z,5.40
2019-04-03T06:53:49.620Z,8.08
2019-04-03T06:56:21.425Z,8.93
2019-04-03T06:58:52.936Z,11.50
2019-04-03T07:01:24.600Z,12.23
2019-04-03T07:03:56.357Z,7.12
2019-04-03T07:06:27.794Z,9.60
2019-04-03T07:08:59.473Z,9.63
2019-04-03T07:11:31.230Z,4.67
2019-04-03T07:14:02.972Z,4.60
2019-04-03T07:16:37.684Z,9.03
2019-04-03T07:19:08.675Z,6.05
2019-04-03T07:21:41.441Z,9.53
2019-04-03T07:24:13.364Z,6.80
2019-04-03T07:26:44.996Z,8.73
2019-04-03T07:29:17.402Z,4.95
2019-04-03T07:31:49.238Z,4.87
2019-04-03T07:34:20.880Z,4.97
2019-04-03T07:36:52.615Z,7.58
2019-04-03T07:39:24.150Z,4.33
2019-04-03T07:41:55.625Z,5.00
2019-04-03T07:44:27.707Z,4.70
2019-04-03T07:47:00.054Z,5.55
2019-04-03T07:49:31.423Z,4.75
2019-04-03T07:52:03.055Z,5.15
2019-04-03T07:54:34.729Z,11.43
2019-04-03T07:57:09.567Z,4.33
2019-04-03T07:59:39.359Z,4.40
2019-04-03T08:02:12.819Z,5.92
2019-04-03T08:04:44.115Z,6.95
2019-04-03T08:07:15.567Z,3.83
2019-04-03T08:09:47.240Z,4.65
2019-04-03T08:12:18.798Z,3.20
2019-04-03T08:14:50.131Z,6.92
2019-04-03T08:17:23.321Z,4.40
2019-04-03T08:19:55.279Z,5.70
2019-04-03T08:22:27.040Z,6.00
2019-04-03T08:24:58.653Z,6.30
2019-04-03T08:27:30.059Z,4.70
2019-04-03T08:30:01.431Z,6.67
2019-04-03T08:32:34.094Z,3.83
2019-04-03T08:35:19.467Z,4.00
2019-04-03T08:40:12.257Z,5.37
2019-04-03T08:42:43.716Z,3.70
2019-04-03T08:45:15.475Z,8.53
2019-04-03T08:47:47.132Z,4.58
2019-04-03T08:50:18.826Z,5.97
2019-04-03T08:52:50.324Z,4.95
2019-04-03T08:55:22.043Z,3.87
2019-04-03T08:57:53.555Z,4.15
2019-04-03T09:00:24.890Z,3.45
2019-04-03T09:02:56.161Z,4.28
2019-04-03T09:05:27.919Z,9.58
2019-04-03T09:07:59.354Z,4.65
2019-04-03T09:10:32.692Z,2.22
2019-04-03T09:13:16.096Z,2.87
2019-04-03T09:15:37.000Z,4.47
2019-04-03T09:18:08.654Z,7.10
2019-04-03T09:20:42.745Z,5.83
2019-04-03T09:23:13.598Z,6.05
2019-04-03T09:25:46.095Z,5.08
2019-04-03T09:28:17.422Z,3.85
2019-04-03T09:30:49.007Z,5.62
2019-04-03T09:33:24.959Z,4.17
2019-04-03T09:35:54.446Z,4.42
2019-04-03T09:38:26.006Z,4.75
2019-04-03T09:40:57.679Z,5.53
2019-04-03T09:43:29.198Z,7.55
2019-04-03T09:46:00.895Z,7.70
2019-04-03T09:48:34.873Z,3.60
2019-04-03T09:51:09.037Z,3.77
2019-04-03T09:53:39.554Z,8.08
2019-04-03T09:56:11.115Z,4.25
2019-04-03T09:58:43.009Z,2.52
2019-04-03T10:01:17.718Z,5.25
2019-04-03T10:03:47.608Z,9.93
2019-04-03T10:06:19.260Z,5.15
2019-04-03T10:08:50.724Z,3.40
2019-04-03T10:11:22.794Z,5.97
2019-04-03T10:13:56.546Z,3.42
2019-04-03T10:16:27.744Z,3.95
2019-04-03T10:18:59.315Z,4.37
2019-04-03T10:21:33.360Z,10.38
2019-04-03T10:24:13.867Z,4.12
2019-04-03T10:26:45.540Z,5.40
2019-04-03T10:29:19.083Z,3.87
2019-04-03T10:31:50.187Z,4.30
2019-04-03T10:34:22.053Z,5.08
2019-04-03T10:36:53.816Z,4.78
2019-04-03T10:39:25.555Z,13.65
2019-04-03T10:41:58.113Z,8.40
2019-04-03T10:44:30.127Z,5.33
2019-04-03T10:47:02.339Z,4.58
2019-04-03T10:49:33.819Z,6.85
2019-04-03T10:52:05.296Z,3.98
2019-04-03T10:54:38.142Z,5.95
2019-04-03T10:57:10.150Z,3.20
2019-04-03T10:59:41.794Z,5.72
2019-04-03T11:02:14.128Z,4.78
2019-04-03T11:04:45.724Z,5.85
2019-04-03T11:07:17.093Z,5.08
2019-04-03T11:09:48.745Z,4.72
2019-04-03T11:12:20.224Z,5.22
2019-04-03T11:15:01.643Z,5.25
2019-04-03T11:17:34.163Z,2.42
2019-04-03T11:20:09.710Z,5.05
2019-04-03T11:22:42.775Z,2.92
2019-04-03T11:25:15.371Z,5.03
2019-04-03T11:27:46.615Z,3.77
2019-04-03T11:30:23.523Z,6.50
2019-04-03T11:32:51.554Z,3.70
2019-04-03T11:35:23.121Z,3.95
2019-04-03T11:37:55.100Z,5.95
2019-04-03T11:40:28.192Z,4.35
2019-04-03T11:42:59.962Z,4.72
2019-04-03T11:45:31.711Z,6.22
2019-04-03T11:48:03.713Z,6.55
2019-04-03T11:50:35.708Z,6.40
2019-04-03T11:53:07.785Z,5.65
2019-04-03T11:55:39.968Z,5.80
2019-04-03T11:58:12.613Z,6.62
2019-04-03T12:00:45.738Z,8.85
2019-04-03T12:03:17.677Z,7.67
2019-04-03T12:05:49.373Z,6.60
2019-04-03T12:08:20.834Z,4.75
2019-04-03T12:10:52.960Z,5.05
2019-04-03T12:13:24.409Z,2.80
2019-04-03T12:15:58.231Z,4.50
2019-04-03T12:18:29.502Z,6.03
2019-04-03T12:21:03.061Z,4.50
2019-04-03T12:23:34.712Z,4.60
2019-04-03T12:26:06.236Z,5.70
2019-04-03T12:28:37.793Z,11.60
2019-04-03T12:31:09.502Z,4.80
2019-04-03T12:33:52.393Z,5.78
2019-04-03T12:36:15.918Z,6.35
2019-04-03T12:38:47.284Z,3.98
2019-04-03T12:41:18.927Z,3.47
2019-04-03T12:43:50.802Z,3.08
2019-04-03T12:46:25.230Z,3.77
2019-04-03T12:48:56.779Z,2.62
2019-04-03T12:51:29.377Z,4.80
2019-04-03T12:54:01.794Z,4.72
2019-04-03T12:56:33.831Z,5.37
2019-04-03T12:59:08.700Z,5.80
2019-04-03T13:01:40.502Z,3.55
2019-04-03T13:04:12.224Z,4.85
2019-04-03T13:06:44.508Z,4.58
2019-04-03T13:09:16.197Z,8.98
2019-04-03T13:11:49.732Z,4.80
2019-04-03T13:14:25.230Z,3.65
2019-04-03T13:16:54.112Z,5.62
2019-04-03T13:19:25.998Z,8.50
2019-04-03T13:21:57.637Z,3.72
2019-04-03T13:24:29.379Z,5.03
2019-04-03T13:27:01.216Z,6.37
2019-04-03T13:29:32.870Z,10.72
2019-04-03T13:32:04.476Z,5.42
2019-04-03T13:34:36.261Z,4.78
2019-04-03T13:37:07.814Z,5.85
2019-04-03T13:39:39.774Z,7.22
2019-04-03T13:42:13.913Z,8.48
2019-04-03T13:44:44.521Z,6.08
2019-04-03T13:47:16.063Z,5.92
2019-04-03T13:49:50.115Z,5.92
2019-04-03T13:52:21.159Z,5.67
2019-04-03T13:54:53.284Z,3.87
2019-04-03T13:57:24.780Z,5.65
2019-04-03T14:00:01.090Z,4.70
2019-04-03T14:05:01.872Z,5.60
2019-04-03T14:07:34.234Z,6.30
2019-04-03T14:10:10.107Z,4.95
2019-04-03T14:12:44.554Z,4.17
2019-04-03T14:15:15.579Z,7.20
2019-04-03T14:17:55.221Z,4.70
2019-04-03T14:20:23.266Z,5.30
2019-04-03T14:22:54.299Z,6.03
2019-04-03T14:25:31.357Z,6.80
2019-04-03T14:28:02.813Z,7.40
2019-04-03T14:30:34.238Z,4.35
2019-04-03T14:33:06.483Z,3.87
2019-04-03T14:35:49.386Z,4.97
2019-04-03T14:38:12.991Z,6.28
2019-04-03T14:40:45.057Z,6.00
2019-04-03T14:43:16.695Z,5.08
2019-04-03T14:45:48.424Z,6.08
2019-04-03T14:48:19.908Z,5.92
2019-04-03T14:50:51.964Z,3.72
2019-04-03T14:53:24.640Z,3.52
2019-04-03T14:55:56.343Z,3.65
2019-04-03T14:58:28.197Z,6.00
2019-04-03T15:00:59.853Z,5.62
2019-04-03T15:03:33.617Z,4.62
2019-04-03T15:06:04.715Z,6.70
2019-04-03T15:08:36.955Z,5.28
2019-04-03T15:11:08.812Z,7.95
2019-04-03T15:13:40.935Z,12.58
2019-04-03T15:16:13.105Z,3.58
2019-04-03T15:18:44.783Z,9.08
2019-04-03T15:21:16.579Z,6.78
2019-04-03T15:23:48.590Z,7.53
2019-04-03T15:26:22.238Z,9.18
2019-04-03T15:28:53.290Z,9.05
2019-04-03T15:31:25.895Z,8.23
2019-04-03T15:33:57.667Z,13.58
2019-04-03T15:36:29.483Z,15.45
2019-04-03T15:39:00.955Z,18.27
2019-04-03T15:41:34.906Z,25.30
2019-04-03T15:44:06.527Z,34.55
2019-04-03T15:46:38.313Z,15.72
2019-04-03T15:49:09.675Z,13.95
2019-04-03T15:51:41.813Z,10.30
2019-04-03T15:54:13.536Z,12.98
2019-04-03T15:56:46.029Z,9.63
2019-04-03T15:59:17.991Z,10.68
2019-04-03T16:01:49.346Z,8.95
2019-04-03T16:04:21.968Z,12.03
2019-04-03T16:06:53.581Z,13.03
2019-04-03T16:09:25.665Z,13.25
2019-04-03T16:12:00.089Z,10.75
2019-04-03T16:14:30.951Z,9.53
2019-04-03T16:17:02.999Z,9.58
2019-04-03T16:19:34.519Z,13.03
2019-04-03T16:22:06.123Z,29.12
2019-04-03T16:24:38.145Z,19.77
2019-04-03T16:27:09.806Z,16.80
2019-04-03T16:29:41.900Z,9.35
2019-04-03T16:32:13.812Z,17.70
2019-04-03T16:34:45.397Z,14.93
2019-04-03T16:37:20.481Z,10.53
2019-04-03T16:39:50.406Z,10.82
2019-04-03T16:42:22.616Z,11.00
2019-04-03T16:44:54.617Z,16.45
2019-04-03T16:47:27.603Z,11.93
2019-04-03T16:50:00.348Z,13.22
2019-04-03T16:52:32.388Z,13.72
2019-04-03T16:55:04.787Z,14.87
2019-04-03T16:57:36.356Z,15.72
2019-04-03T17:00:09.562Z,18.25
2019-04-03T17:02:41.464Z,17.95
2019-04-03T17:05:12.941Z,16.50
2019-04-03T17:07:45.090Z,16.70
2019-04-03T17:10:16.746Z,21.48
2019-04-03T17:12:50.500Z,20.05
2019-04-03T17:15:22.313Z,19.77
2019-04-03T17:17:53.911Z,16.70
2019-04-03T17:20:26.489Z,18.85
2019-04-03T17:22:59.469Z,18.57
2019-04-03T17:25:43.908Z,19.60
2019-04-03T17:28:08.635Z,18.35
2019-04-03T17:30:37.729Z,14.75
2019-04-03T17:33:09.490Z,14.05
2019-04-03T17:35:47.317Z,11.85
2019-04-03T17:38:18.302Z,13.48
2019-04-03T17:40:52.852Z,12.60
2019-04-03T17:43:24.716Z,14.93
2019-04-03T17:45:56.606Z,16.75
2019-04-03T17:48:28.214Z,14.33
2019-04-03T17:51:02.528Z,14.93
2019-04-03T17:53:34.840Z,12.37
2019-04-03T17:56:07.712Z,14.28
2019-04-03T17:58:39.557Z,13.93
2019-04-03T18:01:11.541Z,14.55
2019-04-03T18:03:43.072Z,14.53
2019-04-03T18:06:14.857Z,13.13
2019-04-03T18:08:46.597Z,14.23
2019-04-03T18:11:18.474Z,15.43
2019-04-03T18:13:49.938Z,12.70
2019-04-03T18:16:21.698Z,17.70
2019-04-03T18:18:53.227Z,40.48
2019-04-03T18:21:24.902Z,65.50
2019-04-03T18:23:56.354Z,57.38
2019-04-03T18:26:30.450Z,54.73
2019-04-03T18:29:01.319Z,63.23
2019-04-03T18:31:32.867Z,62.37
2019-04-03T18:34:04.418Z,57.77
2019-04-03T18:36:36.367Z,65.50
2019-04-03T18:39:11.940Z,32.90
2019-04-03T18:41:43.623Z,37.77
2019-04-03T18:44:22.041Z,73.90
2019-04-03T18:46:50.277Z,71.75
2019-04-03T18:49:21.847Z,90.30
2019-04-03T18:51:53.696Z,74.23
2019-04-03T18:54:25.322Z,87.27
2019-04-03T18:56:57.211Z,82.97
2019-04-03T18:59:28.987Z,74.43
2019-04-03T19:02:03.549Z,70.30
2019-04-03T19:04:37.433Z,66.90
2019-04-03T19:07:07.645Z,66.95
2019-04-03T19:09:40.938Z,59.57
2019-04-03T19:12:13.665Z,56.90
2019-04-03T19:14:45.920Z,55.03
2019-04-03T19:17:17.634Z,61.10
2019-04-03T19:19:49.491Z,65.03
2019-04-03T19:22:21.379Z,67.00
2019-04-03T19:24:52.831Z,64.63
2019-04-03T19:27:24.919Z,61.10
2019-04-03T19:29:56.854Z,68.30
2019-04-03T19:32:29.802Z,63.57
2019-04-03T19:35:11.243Z,70.47
2019-04-03T19:37:45.015Z,67.73
2019-04-03T19:40:15.966Z,64.03
2019-04-03T19:42:49.003Z,87.63
2019-04-03T19:45:21.531Z,100.17
2019-04-03T19:47:55.019Z,96.50
2019-04-03T19:50:26.597Z,90.22
2019-04-03T19:52:58.152Z,105.80
2019-04-03T19:55:30.511Z,119.37
2019-04-03T19:58:03.764Z,136.93
2019-04-03T20:00:35.541Z,134.37
2019-04-03T20:03:08.021Z,122.83
2019-04-03T20:05:39.842Z,113.40
2019-04-03T20:08:12.296Z,144.73
2019-04-03T20:10:44.067Z,136.73
2019-04-03T20:13:15.742Z,118.57
2019-04-03T20:15:47.667Z,101.40
2019-04-03T20:18:19.514Z,93.17
2019-04-03T20:20:51.226Z,86.40
2019-04-03T20:23:29.960Z,89.97
2019-04-03T20:25:58.499Z,74.20
2019-04-03T20:28:30.101Z,59.20
2019-04-03T20:31:01.998Z,68.47
2019-04-03T20:33:33.592Z,57.57
2019-04-03T20:36:05.432Z,53.07
2019-04-03T20:38:36.884Z,58.87
2019-04-03T20:41:08.432Z,53.03
2019-04-03T20:43:42.695Z,61.40
2019-04-03T20:46:13.497Z,55.37
2019-04-03T20:48:46.070Z,52.93
2019-04-03T20:51:18.625Z,49.03
2019-04-03T20:53:50.860Z,43.90
2019-04-03T20:56:22.583Z,55.43
2019-04-03T20:58:56.463Z,44.87
2019-04-03T21:01:27.934Z,52.07
2019-04-03T21:03:59.681Z,55.17
2019-04-03T21:06:32.785Z,53.43
2019-04-03T21:09:06.392Z,55.23
2019-04-03T21:11:39.583Z,54.80
2019-04-03T21:14:11.787Z,56.37
2019-04-03T21:16:43.463Z,52.60
2019-04-03T21:19:15.394Z,49.50
2019-04-03T21:21:46.924Z,57.23
2019-04-03T21:24:18.665Z,55.40
2019-04-03T21:26:50.541Z,57.83
2019-04-03T21:29:22.210Z,69.93
2019-04-03T21:31:56.410Z,56.87
2019-04-03T21:34:27.127Z,61.03
2019-04-03T21:36:58.810Z,70.93
2019-04-03T21:39:30.472Z,63.30
2019-04-03T21:42:01.874Z,58.60
2019-04-03T21:44:33.759Z,61.03
2019-04-03T21:47:05.933Z,55.13
2019-04-03T21:49:37.401Z,60.03
2019-04-03T21:52:09.059Z,55.10
2019-04-03T21:54:41.637Z,56.13
2019-04-03T21:57:13.271Z,58.53
2019-04-03T21:59:44.952Z,58.17
2019-04-03T22:02:16.736Z,53.90
2019-04-03T22:04:48.476Z,58.77
2019-04-03T22:07:20.234Z,54.20
2019-04-03T22:09:52.293Z,55.03
2019-04-03T22:12:24.057Z,47.87
2019-04-03T22:14:55.800Z,48.47
2019-04-03T22:17:27.682Z,47.87
2019-04-03T22:19:59.355Z,46.47
2019-04-03T22:22:31.939Z,44.50
2019-04-03T22:25:04.629Z,34.37
2019-04-03T22:27:36.354Z,41.43
2019-04-03T22:30:07.991Z,36.50
2019-04-03T22:32:39.870Z,36.97
2019-04-03T22:35:11.536Z,37.27
2019-04-03T22:37:43.393Z,36.13
2019-04-03T22:40:15.130Z,43.27
2019-04-03T22:42:46.601Z,43.50
2019-04-03T22:45:20.079Z,44.33
2019-04-03T22:47:51.352Z,42.03
2019-04-03T22:50:22.691Z,41.40
2019-04-03T22:52:54.563Z,40.57
2019-04-03T22:55:26.328Z,44.23
2019-04-03T22:57:57.833Z,38.97
2019-04-03T23:00:29.744Z,36.73
2019-04-03T23:03:02.934Z,36.17
2019-04-03T23:05:34.599Z,37.80
2019-04-03T23:08:06.344Z,40.03
2019-04-03T23:10:38.202Z,40.17
2019-04-03T23:13:09.877Z,40.10
2019-04-03T23:15:41.747Z,37.73
2019-04-03T23:18:13.967Z,33.23
2019-04-03T23:20:46.691Z,46.30
2019-04-03T23:23:18.548Z,35.93
2019-04-03T23:25:50.220Z,39.43
2019-04-03T23:28:22.085Z,36.53
2019-04-03T23:30:53.738Z,37.23
2019-04-03T23:33:25.912Z,35.70
2019-04-03T23:35:57.361Z,37.63
2019-04-03T23:38:29.631Z,33.50
2019-04-03T23:41:01.068Z,35.67
2019-04-03T23:43:32.588Z,44.67
2019-04-03T23:46:04.396Z,37.37
2019-04-03T23:48:35.852Z,38.50
2019-04-03T23:51:07.498Z,45.00
2019-04-03T23:53:39.268Z,35.93
2019-04-03T23:56:11.129Z,38.30
2019-04-03T23:58:42.884Z,37.07
